createdAt,value
2023-10-03T00:00:25.337Z,99.37
2023-10-03T00:05:52.270Z,99.49
2023-10-03T00:10:56.881Z,99.81
2023-10-03T00:16:04.556Z,100.00
2023-10-03T00:21:08.427Z,99.97
2023-10-03T00:26:18.339Z,99.61
2023-10-03T00:31:22.980Z,99.32
2023-10-03T00:36:27.682Z,99.12
2023-10-03T00:41:31.732Z,99.68
2023-10-03T00:46:35.668Z,100.00
2023-10-03T00:51:41.723Z,100.00
2023-10-03T00:56:48.210Z,100.00
2023-10-03T01:01:58.683Z,99.95
2023-10-03T01:07:03.528Z,100.00
2023-10-03T01:12:08.020Z,99.98
2023-10-03T01:17:15.016Z,100.00
2023-10-03T01:22:19.796Z,100.00
2023-10-03T01:27:24.320Z,100.00
2023-10-03T01:32:32.934Z,100.00
2023-10-03T01:37:38.973Z,100.00
2023-10-03T01:42:46.144Z,100.00
2023-10-03T01:47:52.268Z,100.00
2023-10-03T01:52:56.601Z,100.00
2023-10-03T01:58:00.525Z,100.00
2023-10-03T02:03:07.152Z,100.00
2023-10-03T02:08:16.348Z,100.00
2023-10-03T02:13:22.339Z,100.00
2023-10-03T02:18:27.581Z,100.00
2023-10-03T02:23:33.401Z,100.00
2023-10-03T02:28:37.756Z,100.00
2023-10-03T02:33:44.363Z,100.00
2023-10-03T02:38:48.933Z,100.00
2023-10-03T02:43:53.490Z,100.00
2023-10-03T02:48:57.644Z,100.00
2023-10-03T02:54:03.012Z,100.00
2023-10-03T02:59:07.495Z,100.00
2023-10-03T03:04:12.908Z,100.00
2023-10-03T03:09:24.427Z,100.00
2023-10-03T03:14:28.830Z,100.00
2023-10-03T03:19:33.862Z,100.00
2023-10-03T03:24:38.118Z,100.00
2023-10-03T03:29:58.745Z,100.00
2023-10-03T03:35:03.487Z,99.89
2023-10-03T03:40:19.867Z,100.00
2023-10-03T03:45:23.646Z,100.00
2023-10-03T03:50:32.785Z,100.00
2023-10-03T03:55:39.012Z,100.00
2023-10-03T04:00:48.487Z,100.00
2023-10-03T04:05:52.543Z,100.00
2023-10-03T04:10:56.860Z,100.00
2023-10-03T04:16:02.405Z,100.00
2023-10-03T04:21:06.787Z,100.00
2023-10-03T04:26:11.454Z,100.00
2023-10-03T04:31:15.654Z,100.00
2023-10-03T04:36:25.277Z,100.00
2023-10-03T04:41:30.013Z,100.00
2023-10-03T04:46:34.430Z,100.00
2023-10-03T04:51:38.580Z,100.00
2023-10-03T04:56:44.918Z,100.00
2023-10-03T05:01:48.621Z,100.00
2023-10-03T05:06:52.584Z,100.00
2023-10-03T05:11:56.535Z,100.00
2023-10-03T05:17:02.598Z,100.00
2023-10-03T05:22:09.724Z,100.00
2023-10-03T05:27:13.872Z,100.00
2023-10-03T05:32:18.976Z,100.00
2023-10-03T05:37:23.377Z,100.00
2023-10-03T05:42:27.569Z,100.00
2023-10-03T05:47:31.831Z,100.00
2023-10-03T05:52:36.124Z,100.00
2023-10-03T05:57:42.308Z,100.00
2023-10-03T06:02:48.283Z,100.00
2023-10-03T06:07:52.470Z,100.00
2023-10-03T06:12:56.504Z,100.00
2023-10-03T06:23:34.955Z,100.00
2023-10-03T06:28:42.742Z,100.00
2023-10-03T06:33:51.440Z,100.00
2023-10-03T06:39:00.616Z,100.00
2023-10-03T06:44:08.938Z,100.00
2023-10-03T06:49:18.868Z,100.00
2023-10-03T06:54:27.311Z,100.00
2023-10-03T06:59:35.205Z,100.00
2023-10-03T07:04:43.121Z,100.00
2023-10-03T07:09:51.662Z,100.00
2023-10-03T07:14:59.864Z,100.00
2023-10-03T07:20:10.522Z,100.00
2023-10-03T07:25:18.240Z,99.74
2023-10-03T07:30:26.577Z,98.78
2023-10-03T07:35:37.309Z,97.07
2023-10-03T07:40:46.143Z,95.70
2023-10-03T07:45:54.279Z,94.68
2023-10-03T07:51:07.069Z,93.65
2023-10-03T07:56:27.425Z,92.89
2023-10-03T08:06:51.154Z,90.59
2023-10-03T08:12:00.039Z,89.35
2023-10-03T08:17:08.402Z,88.38
2023-10-03T08:22:16.061Z,87.71
2023-10-03T08:27:23.616Z,87.11
2023-10-03T08:32:31.027Z,86.86
2023-10-03T08:37:40.543Z,86.82
2023-10-03T08:42:54.324Z,86.83
2023-10-03T08:48:07.777Z,86.59
2023-10-03T08:53:18.790Z,86.15
2023-10-03T08:58:28.095Z,85.16
2023-10-03T09:03:49.457Z,84.73
2023-10-03T09:09:10.128Z,84.41
2023-10-03T09:14:21.638Z,84.93
2023-10-03T09:19:46.304Z,84.07
2023-10-03T09:24:57.523Z,83.14
2023-10-03T09:30:11.984Z,83.12
2023-10-03T09:35:19.785Z,83.61
2023-10-03T09:40:29.180Z,83.44
2023-10-03T09:45:38.462Z,82.90
2023-10-03T09:50:53.532Z,81.26
2023-10-03T09:56:02.832Z,80.16
2023-10-03T10:01:13.551Z,80.15
2023-10-03T10:06:39.771Z,77.95
2023-10-03T10:12:16.391Z,76.64
2023-10-03T10:17:24.244Z,75.55
2023-10-03T10:23:04.689Z,75.20
2023-10-03T10:28:15.618Z,74.32
2023-10-03T10:33:29.437Z,73.41
2023-10-03T10:38:54.804Z,72.92
2023-10-03T10:44:15.324Z,72.08
2023-10-03T10:50:17.502Z,71.68
2023-10-03T10:55:28.959Z,71.19
2023-10-03T11:00:37.227Z,71.14
2023-10-03T11:05:50.327Z,70.19
2023-10-03T11:10:58.508Z,69.99
2023-10-03T11:16:10.008Z,69.13
2023-10-03T11:21:18.104Z,69.55
2023-10-03T11:26:25.963Z,69.23
2023-10-03T11:31:39.194Z,68.46
2023-10-03T11:36:48.144Z,68.42
2023-10-03T11:41:55.790Z,67.65
2023-10-03T11:47:03.799Z,66.68
2023-10-03T11:52:12.002Z,66.68
2023-10-03T11:57:20.160Z,64.68
2023-10-03T12:02:28.342Z,64.26
2023-10-03T12:07:36.622Z,64.00
2023-10-03T12:12:45.101Z,63.35
2023-10-03T12:17:54.101Z,62.31
2023-10-03T12:23:06.197Z,60.63
2023-10-03T12:28:18.010Z,60.45
2023-10-03T12:33:26.368Z,60.11
2023-10-03T12:38:34.992Z,60.88
2023-10-03T12:43:48.106Z,61.78
2023-10-03T12:48:56.578Z,59.17
2023-10-03T12:54:06.140Z,58.93
2023-10-03T12:59:14.684Z,59.23
2023-10-03T13:04:26.385Z,59.26
2023-10-03T13:09:36.550Z,60.02
2023-10-03T13:14:44.407Z,59.64
2023-10-03T13:19:52.517Z,58.83
2023-10-03T13:25:00.640Z,58.54
2023-10-03T13:30:11.830Z,58.67
2023-10-03T13:35:22.366Z,58.62
2023-10-03T13:40:30.681Z,58.80
2023-10-03T13:45:38.686Z,58.64
2023-10-03T13:50:48.934Z,58.67
2023-10-03T13:55:59.789Z,58.30
2023-10-03T14:01:13.611Z,58.25
2023-10-03T14:06:22.283Z,58.32
2023-10-03T14:11:30.032Z,59.24
2023-10-03T14:16:37.816Z,59.57
2023-10-03T14:21:47.135Z,59.19
2023-10-03T14:26:54.769Z,59.21
2023-10-03T14:32:03.211Z,59.44
2023-10-03T14:37:11.032Z,59.87
2023-10-03T14:42:18.588Z,60.17
2023-10-03T14:47:29.474Z,61.02
2023-10-03T14:52:37.495Z,61.12
2023-10-03T14:57:45.898Z,61.72
2023-10-03T15:02:53.898Z,61.94
2023-10-03T15:08:03.251Z,62.26
2023-10-03T15:13:10.529Z,63.44
2023-10-03T15:18:18.442Z,64.69
2023-10-03T15:23:27.577Z,64.01
2023-10-03T15:28:37.383Z,63.91
2023-10-03T15:33:45.370Z,63.58
2023-10-03T15:38:53.000Z,62.77
2023-10-03T15:44:00.932Z,63.19
2023-10-03T15:49:08.864Z,63.83
2023-10-03T15:54:16.730Z,64.94
2023-10-03T15:59:25.596Z,65.62
2023-10-03T16:04:33.931Z,66.67
2023-10-03T16:09:45.019Z,67.15
2023-10-03T16:14:53.083Z,67.30
2023-10-03T16:23:24.071Z,68.94
2023-10-03T16:28:32.746Z,69.86
2023-10-03T16:33:40.291Z,70.41
2023-10-03T16:38:48.409Z,70.76
2023-10-03T16:43:56.967Z,71.20
2023-10-03T16:49:05.143Z,71.16
2023-10-03T16:54:13.006Z,71.97
2023-10-03T16:59:20.808Z,72.53
2023-10-03T17:04:29.045Z,72.48
2023-10-03T17:09:37.363Z,72.77
2023-10-03T17:14:45.985Z,72.88
2023-10-03T17:19:53.730Z,73.24
2023-10-03T17:25:02.835Z,73.43
2023-10-03T17:40:00.810Z,74.57
2023-10-03T17:45:11.377Z,74.31
2023-10-03T17:50:20.258Z,74.91
2023-10-03T17:55:28.699Z,75.82
2023-10-03T18:00:36.276Z,76.05
2023-10-03T18:05:44.223Z,76.14
2023-10-03T18:10:53.515Z,76.57
2023-10-03T18:16:01.995Z,76.90
2023-10-03T18:21:11.818Z,77.34
2023-10-03T18:26:19.754Z,77.79
2023-10-03T18:31:27.765Z,78.89
2023-10-03T18:36:35.770Z,79.86
2023-10-03T18:41:43.785Z,80.23
2023-10-03T18:46:51.721Z,80.89
2023-10-03T18:51:59.516Z,81.64
2023-10-03T18:57:07.632Z,81.99
2023-10-03T19:02:15.731Z,82.52
2023-10-03T19:07:23.466Z,82.88
2023-10-03T19:12:32.019Z,83.53
2023-10-03T19:17:40.228Z,84.38
2023-10-03T19:22:48.054Z,84.85
2023-10-03T19:27:56.993Z,85.23
2023-10-03T19:33:05.101Z,85.72
2023-10-03T19:38:12.741Z,85.92
2023-10-03T19:43:21.161Z,86.20
2023-10-03T19:48:28.682Z,86.54
2023-10-03T19:53:36.296Z,86.60
2023-10-03T19:58:43.807Z,86.46
2023-10-03T20:03:52.270Z,86.64
2023-10-03T20:08:59.772Z,87.69
2023-10-03T20:14:09.734Z,87.80
2023-10-03T20:23:28.172Z,87.77
2023-10-03T20:28:36.536Z,88.08
2023-10-03T20:33:44.715Z,88.39
2023-10-03T20:38:53.997Z,88.71
2023-10-03T20:44:02.081Z,89.03
2023-10-03T20:49:09.957Z,89.25
2023-10-03T20:54:17.753Z,90.13
2023-10-03T20:59:25.389Z,90.45
2023-10-03T21:04:34.561Z,90.95
2023-10-03T21:09:42.959Z,91.06
2023-10-03T21:14:51.266Z,91.21
2023-10-03T21:19:59.745Z,91.49
2023-10-03T21:25:11.115Z,91.82
2023-10-03T21:30:19.835Z,91.63
2023-10-03T21:35:28.711Z,91.74
2023-10-03T21:50:21.159Z,91.78
2023-10-03T21:55:29.617Z,92.04
2023-10-03T22:00:40.278Z,92.28
2023-10-03T22:05:48.263Z,92.37
2023-10-03T22:10:57.000Z,93.04
2023-10-03T22:23:24.706Z,93.64
2023-10-03T22:28:33.258Z,93.45
2023-10-03T22:33:41.384Z,93.17
2023-10-03T22:38:49.784Z,92.34
2023-10-03T22:43:57.426Z,91.27
2023-10-03T22:49:06.151Z,90.34
2023-10-03T22:54:13.908Z,89.01
2023-10-03T22:59:21.690Z,87.59
2023-10-03T23:04:29.376Z,85.07
2023-10-03T23:09:37.795Z,83.57
2023-10-03T23:14:46.151Z,83.77
2023-10-03T23:19:54.655Z,84.32
2023-10-03T23:25:02.496Z,85.20
2023-10-03T23:30:13.679Z,86.27
2023-10-03T23:35:23.230Z,87.76
2023-10-03T23:40:31.604Z,90.59
2023-10-03T23:45:42.934Z,92.91
2023-10-03T23:50:50.585Z,94.09
2023-10-03T23:56:00.192Z,94.52
